Dades meteomassalio
Diari Summary for Diciembre 22, 2017 Units:  English    Metric   Both
« Previous Day
Next Day »
Diari Semanal Mensual Anual Personalitzat
  Maxima: Minima: Mijana:
Temperatura: TemperatureF °F 30.0 °F 39.9 °F
Rosada: DewpointF °F 25.9 °F 32.5 °F
Humitat: Humidity % 57 % 75 %
Velocitat del vent: WindSpeedMPH mph 0.0 mph 5.5 mph
Racha vent: WindSpeedGustMPH mph - -
Vent:- - NW
Pressio: PressureIn in 30.60 in -
Pluja: 0.00 in    
Historical Graphs
 
 
Tabular Data for Diciembre 22, 2017
Time Temperature Dew Point Pressure Wind Wind Speed Wind Gust Humidity Rainfall Rate (Hourly) solar Conditions
TemperatureF °F DewpointF °F PressureIn in Calm     Humidity % HourlyPrecipIn in SolarRadiationWatts/m^2 W/m2 Conditions
00:01 34.0 °F 30.0 °F 30.72 in Calm     85 % 0.00 in 0.0 W/m2 CLR
00:02 34.0 °F 30.0 °F 30.72 in Calm     85 % 0.00 in 0.0 W/m2 CLR
00:07 35.0 °F 30.7 °F 30.71 in Calm     84 % 0.00 in 0.0 W/m2 CLR
00:10 34.0 °F 30.0 °F 30.71 in Calm     85 % 0.00 in 0.0 W/m2 CLR
00:12 34.0 °F 30.5 °F 30.71 in Calm     87 % 0.00 in 0.0 W/m2 CLR
00:14 34.0 °F 30.5 °F 30.71 in Calm     87 % 0.00 in 0.0 W/m2 CLR
00:19 34.0 °F 30.3 °F 30.71 in Calm     86 % 0.00 in 0.0 W/m2 CLR
00:20 34.0 °F 30.3 °F 30.71 in Calm     86 % 0.00 in 0.0 W/m2 CLR
00:21 34.0 °F 30.3 °F 30.71 in Calm     86 % 0.00 in 0.0 W/m2 CLR
00:26 34.0 °F 30.0 °F 30.71 in Calm     85 % 0.00 in 0.0 W/m2 CLR
00:30 34.0 °F 30.3 °F 30.71 in Calm     86 % 0.00 in 0.0 W/m2 CLR
00:38 33.0 °F 29.3 °F 30.70 in Calm     86 % 0.00 in 0.0 W/m2 CLR
00:42 33.0 °F 29.8 °F 30.70 in Calm     88 % 0.00 in 0.0 W/m2 CLR
00:44 33.0 °F 29.6 °F 30.70 in Calm     87 % 0.00 in 0.0 W/m2 CLR
00:49 33.0 °F 29.3 °F 30.70 in Calm     86 % 0.00 in 0.0 W/m2 CLR
00:54 32.0 °F 28.6 °F 30.70 in Calm     87 % 0.00 in 0.0 W/m2 CLR
00:59 32.0 °F 28.6 °F 30.70 in Calm     87 % 0.00 in 0.0 W/m2 CLR
01:00 32.0 °F 28.6 °F 30.70 in Calm     87 % 0.00 in 0.0 W/m2 CLR
01:01 32.0 °F 28.6 °F 30.69 in Calm     87 % 0.00 in 0.0 W/m2 CLR
01:06 32.0 °F 28.6 °F 30.69 in Calm     87 % 0.00 in 0.0 W/m2 CLR
01:07 32.0 °F 28.6 °F 30.69 in Calm     87 % 0.00 in 0.0 W/m2 CLR
01:12 32.0 °F 28.6 °F 30.69 in Calm     87 % 0.00 in 0.0 W/m2 CLR
01:14 32.0 °F 28.6 °F 30.69 in Calm     87 % 0.00 in 0.0 W/m2 CLR
01:18 32.0 °F 28.8 °F 30.69 in Calm     88 % 0.00 in 0.0 W/m2 CLR
01:21 32.0 °F 28.6 °F 30.69 in Calm     87 % 0.00 in 0.0 W/m2 CLR
01:22 33.0 °F 29.6 °F 30.69 in Calm     87 % 0.00 in 0.0 W/m2 CLR
01:25 34.0 °F 30.8 °F 30.69 in Calm     88 % 0.00 in 0.0 W/m2 CLR
01:30 34.0 °F 30.8 °F 30.69 in Calm     88 % 0.00 in 0.0 W/m2 CLR
01:31 34.0 °F 30.8 °F 30.69 in Calm     88 % 0.00 in 0.0 W/m2 CLR
01:36 33.0 °F 30.1 °F 30.69 in Calm     89 % 0.00 in 0.0 W/m2 CLR
01:37 33.0 °F 29.8 °F 30.69 in Calm     88 % 0.00 in 0.0 W/m2 CLR
01:43 33.0 °F 28.7 °F 30.69 in West 4.6 mph 4.6 mph 84 % 0.00 in 0.0 W/m2 CLR
01:44 33.0 °F 28.4 °F 30.69 in West 2.3 mph 2.3 mph 83 % 0.00 in 0.0 W/m2 CLR
01:49 33.0 °F 26.9 °F 30.69 in Calm     78 % 0.00 in 0.0 W/m2 CLR
01:52 33.0 °F 26.9 °F 30.69 in Calm     78 % 0.00 in 0.0 W/m2 CLR
01:54 32.0 °F 26.5 °F 30.69 in Calm     80 % 0.00 in 0.0 W/m2 CLR
01:59 32.0 °F 26.8 °F 30.69 in Calm     81 % 0.00 in 0.0 W/m2 CLR
02:02 32.0 °F 27.1 °F 30.69 in Calm     82 % 0.00 in 0.0 W/m2 CLR
02:03 32.0 °F 27.1 °F 30.69 in Calm     82 % 0.00 in 0.0 W/m2 CLR
02:07 32.0 °F 27.4 °F 30.69 in Calm     83 % 0.00 in 0.0 W/m2 CLR
02:10 32.0 °F 27.7 °F 30.69 in Calm     84 % 0.00 in 0.0 W/m2 CLR
02:13 32.0 °F 28.0 °F 30.69 in Calm     85 % 0.00 in 0.0 W/m2 CLR
02:18 31.0 °F 26.1 °F 30.69 in Calm     82 % 0.00 in 0.0 W/m2 CLR
02:23 31.0 °F 26.1 °F 30.69 in Calm     82 % 0.00 in 0.0 W/m2 CLR
02:24 31.0 °F 26.1 °F 30.69 in Calm     82 % 0.00 in 0.0 W/m2 CLR
02:29 31.0 °F 26.4 °F 30.68 in Calm     83 % 0.00 in 0.0 W/m2 CLR
02:34 31.0 °F 26.4 °F 30.68 in Calm     83 % 0.00 in 0.0 W/m2 CLR
02:39 31.0 °F 27.0 °F 30.68 in Calm     85 % 0.00 in 0.0 W/m2 CLR
02:41 31.0 °F 27.0 °F 30.68 in Calm     85 % 0.00 in 0.0 W/m2 CLR
02:45 31.0 °F 27.3 °F 30.68 in Calm     86 % 0.00 in 0.0 W/m2 CLR
02:46 31.0 °F 27.3 °F 30.68 in Calm     86 % 0.00 in 0.0 W/m2 CLR
02:51 31.0 °F 27.6 °F 30.68 in Calm     87 % 0.00 in 0.0 W/m2 CLR
02:52 31.0 °F 27.6 °F 30.68 in Calm     87 % 0.00 in 0.0 W/m2 CLR
02:57 32.0 °F 28.6 °F 30.68 in Calm     87 % 0.00 in 0.0 W/m2 CLR
02:58 32.0 °F 28.3 °F 30.68 in Calm     86 % 0.00 in 0.0 W/m2 CLR
03:01 31.0 °F 27.0 °F 30.68 in Calm     85 % 0.00 in 0.0 W/m2 CLR
03:04 31.0 °F 27.0 °F 30.68 in Calm     85 % 0.00 in 0.0 W/m2 CLR
03:09 31.0 °F 27.0 °F 30.68 in Calm     85 % 0.00 in 0.0 W/m2 CLR
03:10 31.0 °F 27.0 °F 30.68 in Calm     85 % 0.00 in 0.0 W/m2 CLR
03:15 31.0 °F 27.3 °F 30.68 in Calm     86 % 0.00 in 0.0 W/m2 CLR
03:16 31.0 °F 27.3 °F 30.68 in Calm     86 % 0.00 in 0.0 W/m2 CLR
03:18 31.0 °F 27.6 °F 30.68 in Calm     87 % 0.00 in 0.0 W/m2 CLR
03:21 31.0 °F 27.6 °F 30.68 in Calm     87 % 0.00 in 0.0 W/m2 CLR
03:23 31.0 °F 27.6 °F 30.68 in Calm     87 % 0.00 in 0.0 W/m2 CLR
03:26 31.0 °F 27.6 °F 30.68 in Calm     87 % 0.00 in 0.0 W/m2 CLR
03:31 31.0 °F 27.6 °F 30.68 in Calm     87 % 0.00 in 0.0 W/m2 CLR
03:34 31.0 °F 27.9 °F 30.68 in Calm     88 % 0.00 in 0.0 W/m2 CLR
03:36 31.0 °F 27.9 °F 30.68 in Calm     88 % 0.00 in 0.0 W/m2 CLR
03:41 31.0 °F 27.9 °F 30.67 in Calm     88 % 0.00 in 0.0 W/m2 CLR
03:43 31.0 °F 27.9 °F 30.67 in Calm     88 % 0.00 in 0.0 W/m2 CLR
03:49 31.0 °F 27.6 °F 30.67 in Calm     87 % 0.00 in 0.0 W/m2 CLR
03:50 31.0 °F 27.6 °F 30.67 in Calm     87 % 0.00 in 0.0 W/m2 CLR
03:55 31.0 °F 27.9 °F 30.67 in Calm     88 % 0.00 in 0.0 W/m2 CLR
04:00 31.0 °F 28.1 °F 30.67 in WNW 6.9 mph 6.9 mph 89 % 0.00 in 0.0 W/m2 CLR
04:01 31.0 °F 28.1 °F 30.67 in WNW 6.9 mph 6.9 mph 89 % 0.00 in 0.0 W/m2 CLR
04:06 31.0 °F 28.4 °F 30.67 in West 4.6 mph 4.6 mph 90 % 0.00 in 0.0 W/m2 CLR
04:11 31.0 °F 27.6 °F 30.67 in West 3.5 mph 3.5 mph 87 % 0.00 in 0.0 W/m2 CLR
04:12 31.0 °F 27.6 °F 30.67 in Calm     87 % 0.00 in 0.0 W/m2 CLR
04:17 31.0 °F 26.7 °F 30.67 in Calm     84 % 0.00 in 0.0 W/m2 CLR
04:19 31.0 °F 26.4 °F 30.67 in Calm     83 % 0.00 in 0.0 W/m2 CLR
04:22 31.0 °F 26.7 °F 30.67 in Calm     84 % 0.00 in 0.0 W/m2 CLR
04:25 30.0 °F 26.0 °F 30.67 in Calm     85 % 0.00 in 0.0 W/m2 CLR
04:28 30.0 °F 26.3 °F 30.67 in Calm     86 % 0.00 in 0.0 W/m2 CLR
04:31 30.0 °F 26.3 °F 30.67 in Calm     86 % 0.00 in 0.0 W/m2 CLR
04:34 30.0 °F 26.0 °F 30.66 in Calm     85 % 0.00 in 0.0 W/m2 CLR
04:36 30.0 °F 26.0 °F 30.66 in Calm     85 % 0.00 in 0.0 W/m2 CLR
04:41 30.0 °F 26.0 °F 30.66 in Calm     85 % 0.00 in 0.0 W/m2 CLR
04:43 30.0 °F 26.3 °F 30.67 in Calm     86 % 0.00 in 0.0 W/m2 CLR
04:47 30.0 °F 26.3 °F 30.67 in Calm     86 % 0.00 in 0.0 W/m2 CLR
04:52 30.0 °F 26.3 °F 30.66 in Calm     86 % 0.00 in 0.0 W/m2 CLR
04:55 30.0 °F 26.3 °F 30.66 in Calm     86 % 0.00 in 0.0 W/m2 CLR
04:56 30.0 °F 26.3 °F 30.66 in Calm     86 % 0.00 in 0.0 W/m2 CLR
05:00 31.0 °F 27.3 °F 30.66 in Calm     86 % 0.00 in 0.0 W/m2 CLR
05:01 31.0 °F 27.6 °F 30.66 in Calm     87 % 0.00 in 0.0 W/m2 CLR
05:06 31.0 °F 27.3 °F 30.66 in Calm     86 % 0.00 in 0.0 W/m2 CLR
05:11 31.0 °F 27.3 °F 30.65 in Calm     86 % 0.00 in 0.0 W/m2 CLR
05:12 31.0 °F 27.3 °F 30.65 in Calm     86 % 0.00 in 0.0 W/m2 CLR
05:16 31.0 °F 27.3 °F 30.65 in Calm     86 % 0.00 in 0.0 W/m2 CLR
05:17 31.0 °F 27.3 °F 30.65 in Calm     86 % 0.00 in 0.0 W/m2 CLR
05:22 31.0 °F 27.6 °F 30.65 in Calm     87 % 0.00 in 0.0 W/m2 CLR
05:27 31.0 °F 27.3 °F 30.64 in Calm     86 % 0.00 in 0.0 W/m2 CLR
05:28 31.0 °F 27.3 °F 30.64 in Calm     86 % 0.00 in 0.0 W/m2 CLR
05:33 31.0 °F 27.6 °F 30.64 in Calm     87 % 0.00 in 0.0 W/m2 CLR
05:38 31.0 °F 27.9 °F 30.64 in Calm     88 % 0.00 in 0.0 W/m2 CLR
05:40 31.0 °F 27.9 °F 30.64 in Calm     88 % 0.00 in 0.0 W/m2 CLR
05:45 31.0 °F 27.9 °F 30.64 in Calm     88 % 0.00 in 0.0 W/m2 CLR
05:47 31.0 °F 27.9 °F 30.64 in Calm     88 % 0.00 in 0.0 W/m2 CLR
05:52 30.0 °F 26.9 °F 30.64 in Calm     88 % 0.00 in 0.0 W/m2 CLR
05:57 31.0 °F 27.9 °F 30.64 in Calm     88 % 0.00 in 0.0 W/m2 CLR
06:02 31.0 °F 27.9 °F 30.64 in Calm     88 % 0.00 in 0.0 W/m2 CLR
06:06 31.0 °F 27.9 °F 30.64 in WNW 5.8 mph 5.8 mph 88 % 0.00 in 0.0 W/m2 CLR
06:08 31.0 °F 28.1 °F 30.64 in West 8.1 mph 8.1 mph 89 % 0.00 in 0.0 W/m2 CLR
06:12 32.0 °F 29.1 °F 30.64 in WNW 4.6 mph 4.6 mph 89 % 0.00 in 0.0 W/m2 CLR
06:16 32.0 °F 28.3 °F 30.64 in WNW 3.5 mph 3.5 mph 86 % 0.00 in 0.0 W/m2 CLR
06:21 31.0 °F 26.4 °F 30.64 in Calm     83 % 0.00 in 0.0 W/m2 CLR
06:23 31.0 °F 25.9 °F 30.64 in Calm     81 % 0.00 in 0.0 W/m2 CLR
06:28 31.0 °F 25.9 °F 30.64 in Calm     81 % 0.00 in 0.0 W/m2 CLR
06:30 31.0 °F 26.1 °F 30.64 in Calm     82 % 0.00 in 0.0 W/m2 CLR
06:34 31.0 °F 26.7 °F 30.64 in Calm     84 % 0.00 in 0.0 W/m2 CLR
06:38 30.0 °F 26.0 °F 30.64 in Calm     85 % 0.00 in 0.0 W/m2 CLR
06:39 31.0 °F 27.0 °F 30.64 in Calm     85 % 0.00 in 0.0 W/m2 CLR
06:44 31.0 °F 27.3 °F 30.64 in Calm     86 % 0.00 in 0.0 W/m2 CLR
06:45 31.0 °F 27.3 °F 30.64 in Calm     86 % 0.00 in 0.0 W/m2 CLR
06:50 30.0 °F 26.6 °F 30.64 in Calm     87 % 0.00 in 0.0 W/m2 CLR
06:51 31.0 °F 27.6 °F 30.64 in Calm     87 % 0.00 in 0.0 W/m2 CLR
06:56 31.0 °F 27.3 °F 30.64 in Calm     86 % 0.00 in 0.0 W/m2 CLR
07:00 31.0 °F 27.3 °F 30.64 in Calm     86 % 0.00 in 0.0 W/m2 CLR
07:02 31.0 °F 27.3 °F 30.64 in Calm     86 % 0.00 in 0.0 W/m2 CLR
07:08 31.0 °F 27.0 °F 30.64 in Calm     85 % 0.00 in 0.0 W/m2 CLR
07:13 30.0 °F 26.0 °F 30.65 in Calm     85 % 0.00 in 0.0 W/m2 CLR
07:14 31.0 °F 27.0 °F 30.65 in Calm     85 % 0.00 in 0.0 W/m2 CLR
07:15 30.0 °F 26.0 °F 30.64 in Calm     85 % 0.00 in 0.0 W/m2 CLR
07:20 31.0 °F 27.3 °F 30.65 in Calm     86 % 0.00 in 0.0 W/m2 CLR
07:21 31.0 °F 27.3 °F 30.65 in Calm     86 % 0.00 in 0.0 W/m2 CLR
07:22 31.0 °F 27.6 °F 30.64 in Calm     87 % 0.00 in 0.0 W/m2 CLR
07:26 31.0 °F 27.9 °F 30.64 in Calm     88 % 0.00 in 0.0 W/m2 CLR
07:27 31.0 °F 27.9 °F 30.65 in Calm     88 % 0.00 in 0.0 W/m2 CLR
07:31 31.0 °F 27.9 °F 30.65 in Calm     88 % 0.00 in 0.0 W/m2 CLR
07:35 31.0 °F 27.9 °F 30.65 in Calm     88 % 0.00 in 0.0 W/m2 CLR
07:36 31.0 °F 27.9 °F 30.65 in Calm     88 % 0.00 in 0.0 W/m2 CLR
07:40 31.0 °F 27.6 °F 30.65 in Calm     87 % 0.00 in 0.0 W/m2 CLR
07:41 31.0 °F 27.6 °F 30.65 in Calm     87 % 0.00 in 0.0 W/m2 CLR
07:46 31.0 °F 27.9 °F 30.65 in Calm     88 % 0.00 in 0.0 W/m2 CLR
07:48 31.0 °F 27.9 °F 30.65 in Calm     88 % 0.00 in 0.0 W/m2 CLR
07:51 31.0 °F 28.1 °F 30.65 in Calm     89 % 0.00 in 0.0 W/m2 CLR
07:56 31.0 °F 28.1 °F 30.65 in Calm     89 % 0.00 in 0.0 W/m2 CLR
07:57 31.0 °F 28.1 °F 30.65 in Calm     89 % 0.00 in 0.0 W/m2 CLR
08:02 30.0 °F 26.9 °F 30.65 in Calm     88 % 0.00 in 0.0 W/m2 CLR
08:07 30.0 °F 27.2 °F 30.65 in Calm     89 % 0.00 in 0.0 W/m2 CLR
08:08 30.0 °F 27.2 °F 30.65 in Calm     89 % 0.00 in 0.0 W/m2 CLR
08:13 30.0 °F 27.4 °F 30.65 in Calm     90 % 0.00 in 0.0 W/m2 OVC
08:19 30.0 °F 27.2 °F 30.65 in Calm     89 % 0.00 in 5.0 W/m2 OVC
08:24 30.0 °F 27.2 °F 30.65 in Calm     89 % 0.00 in 7.0 W/m2 BKN
08:26 30.0 °F 27.2 °F 30.65 in Calm     89 % 0.00 in 9.0 W/m2 BKN
08:30 30.0 °F 27.2 °F 30.65 in Calm     89 % 0.00 in 11.0 W/m2 BKN
08:35 30.0 °F 27.4 °F 30.65 in Calm     90 % 0.00 in 14.0 W/m2 BKN
08:40 30.0 °F 27.2 °F 30.66 in Calm     89 % 0.00 in 21.0 W/m2 BKN
08:41 30.0 °F 27.2 °F 30.66 in Calm     89 % 0.00 in 21.0 W/m2 BKN
08:42 30.0 °F 26.9 °F 30.66 in Calm     88 % 0.00 in 21.0 W/m2 BKN
08:49 30.0 °F 26.6 °F 30.66 in Calm     87 % 0.00 in 26.0 W/m2 BKN
08:54 30.0 °F 26.9 °F 30.66 in Calm     88 % 0.00 in 35.0 W/m2 BKN
08:55 30.0 °F 26.9 °F 30.66 in Calm     88 % 0.00 in 37.0 W/m2 BKN
08:58 30.0 °F 26.9 °F 30.66 in Calm     88 % 0.00 in 40.0 W/m2 BKN
09:02 31.0 °F 27.3 °F 30.66 in Calm     86 % 0.00 in 54.0 W/m2 SCT
09:03 31.0 °F 27.0 °F 30.66 in Calm     85 % 0.00 in 56.0 W/m2 SCT
09:07 31.0 °F 26.4 °F 30.66 in Calm     83 % 0.00 in 63.0 W/m2 SCT
09:17 32.0 °F 27.4 °F 30.65 in Calm     83 % 0.00 in 86.0 W/m2 CLR
09:20 32.0 °F 27.4 °F 30.66 in Calm     83 % 0.00 in 81.0 W/m2 FEW
09:25 32.0 °F 27.4 °F 30.66 in Calm     83 % 0.00 in 118.0 W/m2 CLR
09:26 32.0 °F 27.4 °F 30.66 in Calm     83 % 0.00 in 116.0 W/m2 CLR
09:31 33.0 °F 28.7 °F 30.66 in Calm     84 % 0.00 in 130.0 W/m2 CLR
09:32 33.0 °F 28.4 °F 30.66 in Calm     83 % 0.00 in 130.0 W/m2 CLR
09:38 33.0 °F 28.1 °F 30.66 in Calm     82 % 0.00 in 169.0 W/m2 CLR
09:43 35.0 °F 30.1 °F 30.66 in Calm     82 % 0.00 in 172.0 W/m2 CLR
09:44 35.0 °F 30.1 °F 30.66 in Calm     82 % 0.00 in 171.0 W/m2 CLR
09:47 36.0 °F 30.7 °F 30.66 in Calm     81 % 0.00 in 174.0 W/m2 CLR
09:49 36.0 °F 30.4 °F 30.66 in Calm     80 % 0.00 in 181.0 W/m2 CLR
09:54 37.0 °F 31.1 °F 30.66 in Calm     79 % 0.00 in 186.0 W/m2 CLR
09:55 37.0 °F 31.1 °F 30.66 in Calm     79 % 0.00 in 193.0 W/m2 CLR
10:00 38.0 °F 32.1 °F 30.66 in Calm     79 % 0.00 in 142.0 W/m2 CLR
10:01 38.0 °F 32.1 °F 30.66 in Calm     79 % 0.00 in 149.0 W/m2 CLR
10:04 39.0 °F 32.7 °F 30.66 in Calm     78 % 0.00 in 181.0 W/m2 CLR
10:09 39.0 °F 31.4 °F 30.66 in NW 5.8 mph 5.8 mph 74 % 0.00 in 202.0 W/m2 CLR
10:14 40.0 °F 30.3 °F 30.66 in NW 12.7 mph 12.7 mph 68 % 0.00 in 204.0 W/m2 CLR
10:15 40.0 °F 30.3 °F 30.66 in NW 12.7 mph 12.7 mph 68 % 0.00 in 204.0 W/m2 CLR
10:19 42.0 °F 31.1 °F 30.67 in NW 11.5 mph 11.5 mph 65 % 0.00 in 214.0 W/m2 CLR
10:22 44.0 °F 33.0 °F 30.67 in NNW 9.2 mph 9.2 mph 65 % 0.00 in 246.0 W/m2 CLR
10:29 49.0 °F 36.9 °F 30.67 in NW 9.2 mph 9.2 mph 63 % 0.00 in 213.0 W/m2 CLR
10:34 50.0 °F 37.5 °F 30.67 in WNW 9.0 mph 9.0 mph 62 % 0.00 in 237.0 W/m2 CLR
10:35 50.0 °F 36.7 °F 30.67 in WNW 12.0 mph 12.0 mph 60 % 0.00 in 237.0 W/m2 CLR
10:39 51.0 °F 38.0 °F 30.67 in North 13.8 mph 13.8 mph 61 % 0.00 in 197.0 W/m2 CLR
10:44 51.0 °F 38.0 °F 30.67 in NW 11.5 mph 11.5 mph 61 % 0.00 in 221.0 W/m2 CLR
10:49 51.0 °F 38.0 °F 30.67 in NW 15.0 mph 15.0 mph 61 % 0.00 in 232.0 W/m2 CLR
10:50 51.0 °F 38.0 °F 30.67 in NW 15.0 mph 15.0 mph 61 % 0.00 in 232.0 W/m2 CLR
10:55 51.0 °F 38.4 °F 30.67 in NW 18.4 mph 18.4 mph 62 % 0.00 in 271.0 W/m2 CLR
10:56 51.0 °F 38.4 °F 30.67 in NNW 15.0 mph 15.0 mph 62 % 0.00 in 299.0 W/m2 CLR
10:57 52.0 °F 39.4 °F 30.67 in NW 19.6 mph 19.6 mph 62 % 0.00 in 308.0 W/m2 CLR
11:02 52.0 °F 39.4 °F 30.67 in NNW 19.6 mph 19.6 mph 62 % 0.00 in 253.0 W/m2 CLR
11:06 52.0 °F 39.4 °F 30.68 in NNW 11.5 mph 11.5 mph 62 % 0.00 in 223.0 W/m2 CLR
11:08 52.0 °F 39.4 °F 30.68 in WNW 11.5 mph 11.5 mph 62 % 0.00 in 232.0 W/m2 CLR
11:13 52.0 °F 39.0 °F 30.68 in NNW 19.6 mph 19.6 mph 61 % 0.00 in 283.0 W/m2 CLR
11:14 52.0 °F 39.0 °F 30.68 in NNW 16.1 mph 16.1 mph 61 % 0.00 in 229.0 W/m2 CLR
11:19 52.0 °F 38.5 °F 30.68 in NW 11.5 mph 11.5 mph 60 % 0.00 in 287.0 W/m2 CLR
11:20 52.0 °F 38.5 °F 30.67 in NW 15.0 mph 15.0 mph 60 % 0.00 in 287.0 W/m2 CLR
11:25 53.0 °F 39.5 °F 30.67 in NNW 10.4 mph 10.4 mph 60 % 0.00 in 327.0 W/m2 CLR
11:26 53.0 °F 39.0 °F 30.67 in NNW 10.4 mph 10.4 mph 59 % 0.00 in 327.0 W/m2 CLR
11:31 53.0 °F 39.0 °F 30.67 in NW 15.0 mph 15.0 mph 59 % 0.00 in 313.0 W/m2 CLR
11:36 53.0 °F 39.0 °F 30.67 in NW 11.5 mph 11.5 mph 59 % 0.00 in 369.0 W/m2 CLR
11:39 53.0 °F 38.6 °F 30.67 in NNW 11.5 mph 11.5 mph 58 % 0.00 in 360.0 W/m2 CLR
11:44 54.0 °F 39.1 °F 30.67 in NNW 13.8 mph 13.8 mph 57 % 0.00 in 408.0 W/m2 CLR
11:45 54.0 °F 39.5 °F 30.67 in NNW 10.4 mph 10.4 mph 58 % 0.00 in 417.0 W/m2 CLR
11:50 54.0 °F 39.5 °F 30.67 in NNW 19.6 mph 19.6 mph 58 % 0.00 in 348.0 W/m2 CLR
11:51 54.0 °F 40.0 °F 30.67 in NW 19.6 mph 19.6 mph 59 % 0.00 in 346.0 W/m2 CLR
11:56 54.0 °F 40.0 °F 30.66 in NW 21.9 mph 21.9 mph 59 % 0.00 in 339.0 W/m2 CLR
11:59 54.0 °F 40.4 °F 30.66 in NNW 18.4 mph 18.4 mph 60 % 0.00 in 302.0 W/m2 CLR
12:04 54.0 °F 40.4 °F 30.66 in North 16.1 mph 16.1 mph 60 % 0.00 in 276.0 W/m2 CLR
12:08 54.0 °F 40.8 °F 30.66 in NW 17.3 mph 17.3 mph 61 % 0.00 in 350.0 W/m2 CLR
12:09 54.0 °F 40.8 °F 30.66 in WNW 12.7 mph 12.7 mph 61 % 0.00 in 399.0 W/m2 CLR
12:14 55.0 °F 41.4 °F 30.66 in NNW 17.0 mph 17.0 mph 60 % 0.00 in 394.0 W/m2 CLR
12:15 55.0 °F 41.4 °F 30.66 in NNW 15.0 mph 15.0 mph 60 % 0.00 in 394.0 W/m2 CLR
12:20 55.0 °F 41.4 °F 30.65 in NNW 16.1 mph 16.1 mph 60 % 0.00 in 380.0 W/m2 CLR
12:21 55.0 °F 40.9 °F 30.65 in NNW 14.0 mph 14.0 mph 59 % 0.00 in 410.0 W/m2 CLR
12:26 55.0 °F 40.9 °F 30.65 in NNW 17.3 mph 17.3 mph 59 % 0.00 in 404.0 W/m2 CLR
12:27 56.0 °F 41.4 °F 30.65 in NNW 13.8 mph 13.8 mph 58 % 0.00 in 411.0 W/m2 CLR
12:33 56.0 °F 41.9 °F 30.65 in NNW 19.6 mph 19.6 mph 59 % 0.00 in 325.0 W/m2 CLR
12:38 56.0 °F 41.9 °F 30.65 in NW 21.9 mph 21.9 mph 59 % 0.00 in 302.0 W/m2 CLR
12:40 55.0 °F 41.4 °F 30.65 in NW 19.6 mph 19.6 mph 60 % 0.00 in 318.0 W/m2 CLR
12:41 55.0 °F 41.4 °F 30.65 in WNW 13.0 mph 13.0 mph 60 % 0.00 in 290.0 W/m2 CLR
12:45 55.0 °F 41.4 °F 30.65 in NW 11.5 mph 11.5 mph 60 % 0.00 in 285.0 W/m2 CLR
12:47 55.0 °F 41.4 °F 30.65 in NW 11.5 mph 11.5 mph 60 % 0.00 in 287.0 W/m2 CLR
12:52 55.0 °F 41.4 °F 30.64 in NW 15.0 mph 15.0 mph 60 % 0.00 in 311.0 W/m2 CLR
12:56 55.0 °F 41.8 °F 30.64 in NW 17.3 mph 17.3 mph 61 % 0.00 in 269.0 W/m2 CLR
12:57 55.0 °F 41.8 °F 30.64 in WNW 16.1 mph 16.1 mph 61 % 0.00 in 260.0 W/m2 CLR
13:02 55.0 °F 41.8 °F 30.64 in NNW 11.5 mph 11.5 mph 61 % 0.00 in 255.0 W/m2 CLR
13:04 55.0 °F 41.8 °F 30.64 in North 12.7 mph 12.7 mph 61 % 0.00 in 248.0 W/m2 CLR
13:07 55.0 °F 41.8 °F 30.64 in NNW 15.0 mph 15.0 mph 61 % 0.00 in 237.0 W/m2 CLR
13:12 55.0 °F 42.2 °F 30.64 in NW 11.5 mph 11.5 mph 62 % 0.00 in 221.0 W/m2 CLR
13:16 54.0 °F 41.3 °F 30.64 in NNW 16.1 mph 16.1 mph 62 % 0.00 in 204.0 W/m2 CLR
13:18 54.0 °F 41.3 °F 30.64 in WNW 11.5 mph 11.5 mph 62 % 0.00 in 200.0 W/m2 CLR
13:23 54.0 °F 41.3 °F 30.64 in NNW 9.2 mph 9.2 mph 62 % 0.00 in 232.0 W/m2 CLR
13:24 54.0 °F 41.3 °F 30.64 in NNW 12.0 mph 12.0 mph 62 % 0.00 in 220.0 W/m2 CLR
13:28 55.0 °F 42.2 °F 30.64 in North 15.0 mph 15.0 mph 62 % 0.00 in 225.0 W/m2 CLR
13:31 55.0 °F 42.6 °F 30.63 in NNW 11.5 mph 11.5 mph 63 % 0.00 in 246.0 W/m2 CLR
13:33 55.0 °F 42.6 °F 30.64 in NW 10.0 mph 10.0 mph 63 % 0.00 in 250.0 W/m2 CLR
13:40 55.0 °F 42.2 °F 30.63 in NNW 12.7 mph 12.7 mph 62 % 0.00 in 376.0 W/m2 CLR
13:45 55.0 °F 42.2 °F 30.63 in NNW 11.5 mph 11.5 mph 62 % 0.00 in 376.0 W/m2 CLR
13:51 56.0 °F 42.7 °F 30.63 in North 12.0 mph 12.0 mph 61 % 0.00 in 373.0 W/m2 CLR
13:56 56.0 °F 42.7 °F 30.62 in North 11.5 mph 11.5 mph 61 % 0.00 in 359.0 W/m2 CLR
13:57 55.0 °F 41.8 °F 30.62 in North 13.0 mph 13.0 mph 61 % 0.00 in 385.0 W/m2 CLR
14:02 56.0 °F 42.3 °F 30.62 in North 11.0 mph 11.0 mph 60 % 0.00 in 466.0 W/m2 CLR
14:05 56.0 °F 42.7 °F 30.62 in North 13.8 mph 13.8 mph 61 % 0.00 in 480.0 W/m2 CLR
14:10 56.0 °F 42.3 °F 30.62 in NNW 11.5 mph 11.5 mph 60 % 0.00 in 364.0 W/m2 CLR
14:13 56.0 °F 42.3 °F 30.62 in NW 11.5 mph 11.5 mph 60 % 0.00 in 454.0 W/m2 CLR
14:16 56.0 °F 42.3 °F 30.62 in NW 10.4 mph 10.4 mph 60 % 0.00 in 439.0 W/m2 CLR
14:21 56.0 °F 41.9 °F 30.61 in WNW 12.0 mph 12.0 mph 59 % 0.00 in 295.0 W/m2 CLR
14:23 56.0 °F 42.3 °F 30.61 in NW 11.5 mph 11.5 mph 60 % 0.00 in 339.0 W/m2 CLR
14:28 56.0 °F 41.9 °F 30.61 in NW 12.7 mph 12.7 mph 59 % 0.00 in 376.0 W/m2 CLR
14:29 56.0 °F 42.3 °F 30.61 in NW 13.0 mph 13.0 mph 60 % 0.00 in 376.0 W/m2 CLR
14:33 56.0 °F 42.3 °F 30.61 in NNW 13.8 mph 13.8 mph 60 % 0.00 in 345.0 W/m2 CLR
14:35 56.0 °F 41.9 °F 30.61 in NW 13.8 mph 13.8 mph 59 % 0.00 in 248.0 W/m2 CLR
14:40 56.0 °F 42.3 °F 30.61 in NNW 13.8 mph 13.8 mph 60 % 0.00 in 380.0 W/m2 CLR
14:41 56.0 °F 42.3 °F 30.61 in WNW 13.8 mph 13.8 mph 60 % 0.00 in 378.0 W/m2 CLR
14:46 56.0 °F 41.9 °F 30.61 in NW 11.5 mph 11.5 mph 59 % 0.00 in 359.0 W/m2 CLR
14:48 56.0 °F 41.9 °F 30.61 in NW 11.5 mph 11.5 mph 59 % 0.00 in 334.0 W/m2 CLR
14:49 56.0 °F 41.9 °F 30.61 in North 13.0 mph 13.0 mph 59 % 0.00 in 334.0 W/m2 CLR
14:54 56.0 °F 41.9 °F 30.60 in North 9.2 mph 9.2 mph 59 % 0.00 in 258.0 W/m2 CLR
14:55 56.0 °F 41.9 °F 30.60 in NW 10.0 mph 10.0 mph 59 % 0.00 in 258.0 W/m2 CLR
15:00 56.0 °F 41.9 °F 30.60 in NW 8.1 mph 8.1 mph 59 % 0.00 in 197.0 W/m2 CLR
15:01 56.0 °F 41.9 °F 30.60 in NNW 9.2 mph 9.2 mph 59 % 0.00 in 141.0 W/m2 CLR
15:04 56.0 °F 41.9 °F 30.60 in NW 11.5 mph 11.5 mph 59 % 0.00 in 118.0 W/m2 CLR
15:09 55.0 °F 41.4 °F 30.60 in NW 11.5 mph 11.5 mph 60 % 0.00 in 239.0 W/m2 CLR
15:10 55.0 °F 41.4 °F 30.60 in NW 11.5 mph 11.5 mph 60 % 0.00 in 265.0 W/m2 CLR
15:15 56.0 °F 42.3 °F 30.60 in WNW 17.3 mph 17.3 mph 60 % 0.00 in 294.0 W/m2 CLR
15:21 56.0 °F 42.3 °F 30.60 in NW 15.0 mph 15.0 mph 60 % 0.00 in 281.0 W/m2 CLR
15:23 56.0 °F 42.3 °F 30.60 in NW 11.5 mph 11.5 mph 60 % 0.00 in 279.0 W/m2 CLR
15:26 56.0 °F 42.3 °F 30.60 in NW 15.0 mph 15.0 mph 60 % 0.00 in 269.0 W/m2 CLR
15:30 56.0 °F 42.3 °F 30.60 in NW 12.7 mph 12.7 mph 60 % 0.00 in 264.0 W/m2 CLR
15:31 56.0 °F 42.3 °F 30.60 in WNW 11.5 mph 11.5 mph 60 % 0.00 in 264.0 W/m2 CLR
15:36 55.0 °F 41.4 °F 30.60 in WNW 15.0 mph 15.0 mph 60 % 0.00 in 192.0 W/m2 CLR
15:38 55.0 °F 41.4 °F 30.60 in NW 11.5 mph 11.5 mph 60 % 0.00 in 137.0 W/m2 CLR
15:39 55.0 °F 41.8 °F 30.60 in WNW 11.5 mph 11.5 mph 61 % 0.00 in 127.0 W/m2 CLR
15:43 55.0 °F 41.8 °F 30.60 in NW 11.5 mph 11.5 mph 61 % 0.00 in 221.0 W/m2 CLR
15:47 55.0 °F 41.8 °F 30.60 in NNW 14.0 mph 14.0 mph 61 % 0.00 in 123.0 W/m2 CLR
15:49 55.0 °F 41.8 °F 30.60 in NNW 13.8 mph 13.8 mph 61 % 0.00 in 158.0 W/m2 CLR
15:54 55.0 °F 42.2 °F 30.60 in NNW 13.0 mph 13.0 mph 62 % 0.00 in 200.0 W/m2 CLR
15:57 55.0 °F 42.2 °F 30.60 in NNW 11.5 mph 11.5 mph 62 % 0.00 in 192.0 W/m2 CLR
16:00 54.0 °F 41.3 °F 30.60 in NNW 11.0 mph 11.0 mph 62 % 0.00 in 197.0 W/m2 CLR
16:05 54.0 °F 41.3 °F 30.60 in NW 11.5 mph 11.5 mph 62 % 0.00 in 181.0 W/m2 CLR
16:10 54.0 °F 41.3 °F 30.60 in NW 11.0 mph 11.0 mph 62 % 0.00 in 163.0 W/m2 CLR
16:11 54.0 °F 41.3 °F 30.60 in NW 11.5 mph 11.5 mph 62 % 0.00 in 155.0 W/m2 CLR
16:18 54.0 °F 41.3 °F 30.60 in NNW 15.0 mph 15.0 mph 62 % 0.00 in 125.0 W/m2 CLR
16:23 54.0 °F 41.7 °F 30.61 in North 16.1 mph 16.1 mph 63 % 0.00 in 105.0 W/m2 CLR
16:27 53.0 °F 40.7 °F 30.60 in NW 15.0 mph 15.0 mph 63 % 0.00 in 60.0 W/m2 CLR
16:29 53.0 °F 40.7 °F 30.60 in NW 13.8 mph 13.8 mph 63 % 0.00 in 58.0 W/m2 CLR
16:34 53.0 °F 41.1 °F 30.60 in NW 13.8 mph 13.8 mph 64 % 0.00 in 77.0 W/m2 FEW
16:39 53.0 °F 41.5 °F 30.60 in NW 11.5 mph 11.5 mph 65 % 0.00 in 100.0 W/m2 CLR
16:41 53.0 °F 41.1 °F 30.60 in WNW 10.4 mph 10.4 mph 64 % 0.00 in 83.0 W/m2 FEW
16:46 53.0 °F 41.1 °F 30.60 in NW 9.2 mph 9.2 mph 64 % 0.00 in 51.0 W/m2 SCT
16:47 53.0 °F 41.1 °F 30.60 in NNW 9.2 mph 9.2 mph 64 % 0.00 in 44.0 W/m2 SCT
16:52 53.0 °F 41.5 °F 30.60 in NW 9.2 mph 9.2 mph 65 % 0.00 in 60.0 W/m2 SCT
16:57 52.0 °F 40.6 °F 30.60 in NW 7.0 mph 7.0 mph 65 % 0.00 in 56.0 W/m2 SCT
16:58 52.0 °F 40.6 °F 30.60 in NNW 8.1 mph 8.1 mph 65 % 0.00 in 53.0 W/m2 SCT
17:02 52.0 °F 40.6 °F 30.60 in WNW 9.2 mph 9.2 mph 65 % 0.00 in 47.0 W/m2 SCT
17:03 52.0 °F 40.6 °F 30.60 in NW 8.1 mph 8.1 mph 65 % 0.00 in 44.0 W/m2 SCT
17:08 52.0 °F 40.6 °F 30.60 in NW 11.5 mph 11.5 mph 65 % 0.00 in 35.0 W/m2 BKN
17:10 52.0 °F 40.6 °F 30.60 in NW 8.1 mph 8.1 mph 65 % 0.00 in 30.0 W/m2 BKN
17:12 52.0 °F 40.6 °F 30.60 in NNW 6.9 mph 6.9 mph 65 % 0.00 in 28.0 W/m2 BKN
17:16 52.0 °F 41.0 °F 30.60 in NW 10.4 mph 10.4 mph 66 % 0.00 in 23.0 W/m2 BKN
17:20 52.0 °F 41.0 °F 30.61 in NNW 11.5 mph 11.5 mph 66 % 0.00 in 19.0 W/m2 BKN
17:22 52.0 °F 41.0 °F 30.61 in NNW 4.6 mph 4.6 mph 66 % 0.00 in 18.0 W/m2 BKN
17:27 52.0 °F 41.4 °F 30.61 in NW 5.8 mph 5.8 mph 67 % 0.00 in 14.0 W/m2 BKN
17:28 52.0 °F 41.4 °F 30.61 in NW 6.0 mph 6.0 mph 67 % 0.00 in 12.0 W/m2 BKN
17:29 51.0 °F 40.4 °F 30.61 in WNW 5.8 mph 5.8 mph 67 % 0.00 in 12.0 W/m2 BKN
17:33 51.0 °F 40.4 °F 30.61 in NW 6.9 mph 6.9 mph 67 % 0.00 in 9.0 W/m2 BKN
17:38 50.0 °F 39.5 °F 30.61 in NW 5.0 mph 5.0 mph 67 % 0.00 in 5.0 W/m2 OVC
17:40 50.0 °F 39.5 °F 30.61 in WNW 6.9 mph 6.9 mph 67 % 0.00 in 5.0 W/m2 OVC
17:45 49.0 °F 38.5 °F 30.61 in NW 5.0 mph 5.0 mph 67 % 0.00 in 0.0 W/m2 CLR
17:46 49.0 °F 38.9 °F 30.61 in NW 6.0 mph 6.0 mph 68 % 0.00 in 0.0 W/m2 CLR
17:47 49.0 °F 38.9 °F 30.61 in NW 5.8 mph 5.8 mph 68 % 0.00 in 0.0 W/m2 CLR
17:51 48.0 °F 37.9 °F 30.61 in Calm     68 % 0.00 in 0.0 W/m2 CLR
17:56 47.0 °F 37.0 °F 30.61 in Calm     68 % 0.00 in 0.0 W/m2 CLR
17:57 46.0 °F 36.0 °F 30.61 in Calm     68 % 0.00 in 0.0 W/m2 CLR
18:05 45.0 °F 35.1 °F 30.62 in Calm     68 % 0.00 in 0.0 W/m2 CLR
18:08 44.0 °F 34.1 °F 30.62 in Calm     68 % 0.00 in 0.0 W/m2 CLR
18:11 44.0 °F 34.5 °F 30.62 in Calm     69 % 0.00 in 0.0 W/m2 CLR
18:13 44.0 °F 34.5 °F 30.62 in Calm     69 % 0.00 in 0.0 W/m2 CLR
18:16 43.0 °F 33.5 °F 30.62 in Calm     69 % 0.00 in 0.0 W/m2 CLR
18:19 43.0 °F 33.5 °F 30.62 in Calm     69 % 0.00 in 0.0 W/m2 CLR
18:24 42.0 °F 32.6 °F 30.62 in Calm     69 % 0.00 in 0.0 W/m2 CLR
18:25 42.0 °F 32.6 °F 30.62 in Calm     69 % 0.00 in 0.0 W/m2 CLR
18:30 42.0 °F 33.3 °F 30.62 in Calm     71 % 0.00 in 0.0 W/m2 CLR
18:31 42.0 °F 33.3 °F 30.62 in Calm     71 % 0.00 in 0.0 W/m2 CLR
18:37 41.0 °F 32.3 °F 30.62 in Calm     71 % 0.00 in 0.0 W/m2 CLR
18:42 41.0 °F 32.7 °F 30.62 in Calm     72 % 0.00 in 0.0 W/m2 CLR
18:47 40.0 °F 32.0 °F 30.62 in Calm     73 % 0.00 in 0.0 W/m2 CLR
18:48 40.0 °F 32.0 °F 30.62 in Calm     73 % 0.00 in 0.0 W/m2 CLR
18:49 40.0 °F 32.0 °F 30.62 in Calm     73 % 0.00 in 0.0 W/m2 CLR
18:53 39.0 °F 31.1 °F 30.62 in Calm     73 % 0.00 in 0.0 W/m2 CLR
18:55 39.0 °F 31.1 °F 30.62 in Calm     73 % 0.00 in 0.0 W/m2 CLR
18:58 39.0 °F 31.4 °F 30.62 in Calm     74 % 0.00 in 0.0 W/m2 CLR
19:01 39.0 °F 31.4 °F 30.63 in Calm     74 % 0.00 in 0.0 W/m2 CLR
19:04 38.0 °F 30.4 °F 30.63 in Calm     74 % 0.00 in 0.0 W/m2 CLR
19:09 38.0 °F 30.8 °F 30.63 in Calm     75 % 0.00 in 0.0 W/m2 CLR
19:14 38.0 °F 30.8 °F 30.63 in West 4.6 mph 4.6 mph 75 % 0.00 in 0.0 W/m2 CLR
19:16 38.0 °F 30.8 °F 30.63 in WNW 1.2 mph   75 % 0.00 in 0.0 W/m2 CLR
19:21 38.0 °F 31.1 °F 30.63 in NW 8.1 mph 8.1 mph 76 % 0.00 in 0.0 W/m2 CLR
19:22 38.0 °F 31.1 °F 30.63 in NW 7.0 mph 7.0 mph 76 % 0.00 in 0.0 W/m2 CLR
19:25 37.0 °F 30.1 °F 30.63 in WNW 8.1 mph 8.1 mph 76 % 0.00 in 0.0 W/m2 CLR
19:28 37.0 °F 29.8 °F 30.63 in NW 5.8 mph 5.8 mph 75 % 0.00 in 0.0 W/m2 CLR
19:33 37.0 °F 29.8 °F 30.63 in WNW 8.1 mph 8.1 mph 75 % 0.00 in 0.0 W/m2 CLR
19:38 37.0 °F 29.5 °F 30.63 in West 4.6 mph 4.6 mph 74 % 0.00 in 0.0 W/m2 CLR
19:42 36.0 °F 28.5 °F 30.63 in Calm     74 % 0.00 in 0.0 W/m2 CLR
19:44 36.0 °F 28.5 °F 30.63 in WNW 7.0 mph 7.0 mph 74 % 0.00 in 0.0 W/m2 CLR
19:49 36.0 °F 28.8 °F 30.63 in West 8.1 mph 8.1 mph 75 % 0.00 in 0.0 W/m2 CLR
19:54 36.0 °F 28.8 °F 30.64 in WNW 5.8 mph 5.8 mph 75 % 0.00 in 0.0 W/m2 CLR
19:59 36.0 °F 29.2 °F 30.64 in WNW 8.1 mph 8.1 mph 76 % 0.00 in 0.0 W/m2 CLR
20:03 36.0 °F 29.2 °F 30.63 in WNW 4.0 mph 4.0 mph 76 % 0.00 in 0.0 W/m2 CLR
20:04 36.0 °F 29.2 °F 30.63 in WNW 8.1 mph 8.1 mph 76 % 0.00 in 0.0 W/m2 CLR
20:09 36.0 °F 29.5 °F 30.63 in WNW 6.9 mph 6.9 mph 77 % 0.00 in 0.0 W/m2 CLR
20:10 36.0 °F 29.5 °F 30.63 in WNW 6.9 mph 6.9 mph 77 % 0.00 in 0.0 W/m2 CLR
20:15 36.0 °F 29.2 °F 30.64 in WNW 7.0 mph 7.0 mph 76 % 0.00 in 0.0 W/m2 CLR
20:20 36.0 °F 29.2 °F 30.64 in WNW 10.4 mph 10.4 mph 76 % 0.00 in 0.0 W/m2 CLR
20:25 36.0 °F 29.2 °F 30.64 in WNW 9.0 mph 9.0 mph 76 % 0.00 in 0.0 W/m2 CLR
20:26 36.0 °F 29.2 °F 30.64 in WNW 10.4 mph 10.4 mph 76 % 0.00 in 0.0 W/m2 CLR
20:28 37.0 °F 30.1 °F 30.64 in NW 6.0 mph 6.0 mph 76 % 0.00 in 0.0 W/m2 CLR
20:32 37.0 °F 30.1 °F 30.64 in WNW 9.2 mph 9.2 mph 76 % 0.00 in 0.0 W/m2 CLR
20:37 36.0 °F 29.2 °F 30.64 in WNW 8.1 mph 8.1 mph 76 % 0.00 in 0.0 W/m2 CLR
20:38 36.0 °F 29.2 °F 30.64 in WNW 8.1 mph 8.1 mph 76 % 0.00 in 0.0 W/m2 CLR
20:42 36.0 °F 29.2 °F 30.64 in West 8.1 mph 8.1 mph 76 % 0.00 in 0.0 W/m2 CLR
20:45 36.0 °F 29.2 °F 30.64 in West 6.0 mph 6.0 mph 76 % 0.00 in 0.0 W/m2 CLR
20:50 36.0 °F 29.2 °F 30.64 in West 5.8 mph 5.8 mph 76 % 0.00 in 0.0 W/m2 CLR
20:51 36.0 °F 29.5 °F 30.64 in West 6.9 mph 6.9 mph 77 % 0.00 in 0.0 W/m2 CLR
20:57 36.0 °F 29.8 °F 30.64 in WNW 9.2 mph 9.2 mph 78 % 0.00 in 0.0 W/m2 CLR
21:02 36.0 °F 29.8 °F 30.64 in WNW 8.1 mph 8.1 mph 78 % 0.00 in 0.0 W/m2 CLR
21:05 36.0 °F 29.8 °F 30.64 in WNW 12.7 mph 12.7 mph 78 % 0.00 in 0.0 W/m2 CLR
21:10 36.0 °F 29.5 °F 30.64 in West 6.0 mph 6.0 mph 77 % 0.00 in 0.0 W/m2 CLR
21:13 36.0 °F 29.5 °F 30.64 in West 9.2 mph 9.2 mph 77 % 0.00 in 0.0 W/m2 CLR
21:18 36.0 °F 29.5 °F 30.64 in West 3.5 mph 3.5 mph 77 % 0.00 in 0.0 W/m2 CLR
21:20 36.0 °F 29.5 °F 30.64 in WNW 7.0 mph 7.0 mph 77 % 0.00 in 0.0 W/m2 CLR
21:25 36.0 °F 29.8 °F 30.64 in WNW 5.8 mph 5.8 mph 78 % 0.00 in 0.0 W/m2 CLR
21:26 36.0 °F 29.8 °F 30.64 in West 6.9 mph 6.9 mph 78 % 0.00 in 0.0 W/m2 CLR
21:29 36.0 °F 29.8 °F 30.64 in WNW 3.5 mph 4.4 mph 78 % 0.00 in 0.0 W/m2 CLR
21:32 36.0 °F 29.8 °F 30.64 in West 6.9 mph 6.9 mph 78 % 0.00 in 0.0 W/m2 CLR
21:37 36.0 °F 29.8 °F 30.64 in West 5.8 mph 5.8 mph 78 % 0.00 in 0.0 W/m2 CLR
21:38 36.0 °F 29.8 °F 30.64 in West 5.8 mph 5.8 mph 78 % 0.00 in 0.0 W/m2 CLR
21:43 36.0 °F 29.8 °F 30.64 in West 5.8 mph 5.8 mph 78 % 0.00 in 0.0 W/m2 CLR
21:48 36.0 °F 29.8 °F 30.64 in West 4.6 mph 4.6 mph 78 % 0.00 in 0.0 W/m2 CLR
21:53 35.0 °F 29.1 °F 30.64 in West 5.0 mph 5.0 mph 79 % 0.00 in 0.0 W/m2 CLR
21:58 35.0 °F 29.1 °F 30.64 in West 4.6 mph 4.6 mph 79 % 0.00 in 0.0 W/m2 CLR
21:59 36.0 °F 30.1 °F 30.64 in West 3.5 mph 3.5 mph 79 % 0.00 in 0.0 W/m2 CLR
22:04 36.0 °F 30.1 °F 30.64 in West 9.2 mph 9.2 mph 79 % 0.00 in 0.0 W/m2 CLR
22:09 36.0 °F 30.4 °F 30.64 in WNW 8.1 mph 8.1 mph 80 % 0.00 in 0.0 W/m2 CLR
22:10 36.0 °F 30.4 °F 30.64 in WNW 8.1 mph 8.1 mph 80 % 0.00 in 0.0 W/m2 CLR
22:16 36.0 °F 30.4 °F 30.64 in West 8.1 mph 8.1 mph 80 % 0.00 in 0.0 W/m2 CLR
22:21 36.0 °F 30.1 °F 30.64 in West 9.2 mph 9.2 mph 79 % 0.00 in 0.0 W/m2 CLR
22:23 36.0 °F 30.1 °F 30.64 in WNW 10.4 mph 10.4 mph 79 % 0.00 in 0.0 W/m2 CLR
22:28 35.0 °F 29.1 °F 30.64 in West 10.4 mph 10.4 mph 79 % 0.00 in 0.0 W/m2 CLR
22:33 35.0 °F 29.1 °F 30.64 in WNW 9.0 mph 9.0 mph 79 % 0.00 in 0.0 W/m2 CLR
22:34 35.0 °F 29.1 °F 30.64 in WNW 6.9 mph 6.9 mph 79 % 0.00 in 0.0 W/m2 CLR
22:38 35.0 °F 29.1 °F 30.64 in West 9.2 mph 9.2 mph 79 % 0.00 in 0.0 W/m2 CLR
22:39 35.0 °F 29.1 °F 30.64 in WNW 9.2 mph 9.2 mph 79 % 0.00 in 0.0 W/m2 CLR
22:43 35.0 °F 29.1 °F 30.64 in West 10.0 mph 10.0 mph 79 % 0.00 in 0.0 W/m2 CLR
22:48 34.0 °F 28.2 °F 30.64 in West 9.2 mph 9.2 mph 79 % 0.00 in 0.0 W/m2 CLR
22:49 34.0 °F 28.2 °F 30.64 in WNW 6.9 mph 6.9 mph 79 % 0.00 in 0.0 W/m2 CLR
22:53 34.0 °F 28.2 °F 30.64 in WNW 9.2 mph 9.2 mph 79 % 0.00 in 0.0 W/m2 CLR
23:01 34.0 °F 28.5 °F 30.65 in West 4.6 mph 4.6 mph 80 % 0.00 in 0.0 W/m2 CLR
23:07 34.0 °F 28.5 °F 30.64 in West 8.1 mph 8.1 mph 80 % 0.00 in 0.0 W/m2 CLR
23:12 34.0 °F 28.5 °F 30.65 in West 9.2 mph 9.2 mph 80 % 0.00 in 0.0 W/m2 CLR
23:14 34.0 °F 28.5 °F 30.65 in West 6.9 mph 6.9 mph 80 % 0.00 in 0.0 W/m2 CLR
23:19 34.0 °F 28.5 °F 30.65 in West 9.0 mph 9.0 mph 80 % 0.00 in 0.0 W/m2 CLR
23:25 34.0 °F 28.5 °F 30.65 in WNW 9.2 mph 9.2 mph 80 % 0.00 in 0.0 W/m2 CLR
23:26 34.0 °F 28.2 °F 30.65 in West 9.2 mph 9.2 mph 79 % 0.00 in 0.0 W/m2 CLR
23:31 34.0 °F 28.2 °F 30.65 in West 9.2 mph 9.2 mph 79 % 0.00 in 0.0 W/m2 CLR
23:36 34.0 °F 28.5 °F 30.65 in West 9.2 mph 9.2 mph 80 % 0.00 in 0.0 W/m2 CLR
23:41 33.0 °F 27.2 °F 30.65 in West 5.8 mph 5.8 mph 79 % 0.00 in 0.0 W/m2 CLR
23:46 33.0 °F 27.5 °F 30.65 in West 6.0 mph 6.0 mph 80 % 0.00 in 0.0 W/m2 CLR
23:50 34.0 °F 28.5 °F 30.65 in West 5.0 mph 5.2 mph 80 % 0.00 in 0.0 W/m2 CLR
23:51 34.0 °F 28.5 °F 30.65 in West 4.6 mph 4.6 mph 80 % 0.00 in 0.0 W/m2 CLR
23:56 34.0 °F 28.8 °F 30.65 in West 5.8 mph 5.8 mph 81 % 0.00 in 0.0 W/m2 CLR
23:57 34.0 °F 28.8 °F 30.65 in West 5.8 mph 5.8 mph 81 % 0.00 in 0.0 W/m2 CLR
23:59 34.0 °F 28.8 °F 30.65 in West 5.8 mph 5.8 mph 81 % 0.00 in 0.0 W/m2 CLR
Lo Temps de Massalio
Compliments of Weather Underground - 1.5 mb